createdAt,value
2018-02-13T00:01:33.998Z,90.80
2018-02-13T00:04:00.589Z,90.90
2018-02-13T00:06:28.261Z,90.40
2018-02-13T00:08:54.796Z,90.40
2018-02-13T00:11:21.368Z,90.40
2018-02-13T00:13:47.910Z,90.20
2018-02-13T00:16:14.474Z,90.00
2018-02-13T00:18:41.058Z,90.10
2018-02-13T00:21:08.349Z,90.30
2018-02-13T00:23:35.682Z,90.00
2018-02-13T00:26:02.397Z,90.00
2018-02-13T00:28:29.087Z,90.60
2018-02-13T00:30:55.623Z,90.80
2018-02-13T00:33:22.279Z,90.70
2018-02-13T00:35:48.832Z,90.50
2018-02-13T00:38:15.402Z,90.50
2018-02-13T00:40:42.003Z,90.70
2018-02-13T00:43:08.715Z,90.90
2018-02-13T00:45:35.254Z,91.00
2018-02-13T00:48:05.929Z,91.10
2018-02-13T00:50:33.234Z,90.60
2018-02-13T00:52:59.773Z,90.60
2018-02-13T00:55:27.437Z,90.70
2018-02-13T00:57:53.984Z,90.70
2018-02-13T01:00:20.496Z,90.80
2018-02-13T01:02:47.086Z,90.80
2018-02-13T01:05:13.628Z,90.90
2018-02-13T01:07:40.228Z,90.70
2018-02-13T01:10:06.852Z,90.90
2018-02-13T01:12:33.389Z,90.70
2018-02-13T01:14:59.942Z,90.30
2018-02-13T01:17:26.510Z,90.60
2018-02-13T01:19:53.082Z,90.50
2018-02-13T01:22:19.791Z,90.40
2018-02-13T01:24:47.102Z,90.90
2018-02-13T01:27:13.739Z,90.90
2018-02-13T01:29:40.489Z,91.00
2018-02-13T01:32:07.059Z,91.10
2018-02-13T01:34:37.078Z,91.40
2018-02-13T01:37:03.661Z,91.40
2018-02-13T01:39:30.215Z,91.40
2018-02-13T01:41:56.766Z,91.50
2018-02-13T01:44:23.282Z,91.50
2018-02-13T01:46:49.924Z,91.40
2018-02-13T01:49:16.499Z,91.20
2018-02-13T01:51:43.064Z,91.00
2018-02-13T01:54:10.350Z,91.20
2018-02-13T01:56:37.036Z,91.20
2018-02-13T01:59:04.323Z,91.90
2018-02-13T02:01:35.420Z,91.50
2018-02-13T02:04:03.478Z,91.80
2018-02-13T02:06:34.548Z,91.80
2018-02-13T02:09:01.886Z,91.90
2018-02-13T02:11:28.453Z,91.80
2018-02-13T02:13:55.726Z,91.20
2018-02-13T02:16:22.275Z,91.10
2018-02-13T02:18:48.859Z,91.00
2018-02-13T02:21:16.146Z,90.80
2018-02-13T02:23:46.531Z,90.80
2018-02-13T02:26:13.117Z,90.80
2018-02-13T02:28:39.592Z,90.90
2018-02-13T02:31:06.042Z,90.80
2018-02-13T02:33:32.592Z,90.80
2018-02-13T02:35:59.117Z,91.30
2018-02-13T02:38:25.548Z,91.40
2018-02-13T02:40:52.015Z,91.50
2018-02-13T02:43:18.432Z,91.70
2018-02-13T02:45:48.960Z,92.10
2018-02-13T02:48:15.394Z,92.50
2018-02-13T02:50:41.848Z,92.60
2018-02-13T02:53:08.265Z,92.50
2018-02-13T02:55:34.684Z,92.30
2018-02-13T02:58:01.291Z,92.10
2018-02-13T03:00:27.809Z,91.90
2018-02-13T03:02:54.281Z,92.20
2018-02-13T03:05:20.690Z,92.30
2018-02-13T03:07:47.148Z,92.50
2018-02-13T03:10:13.597Z,92.60
2018-02-13T03:12:40.066Z,92.40
2018-02-13T03:15:08.005Z,92.40
2018-02-13T03:17:34.856Z,92.40
2018-02-13T03:20:01.304Z,92.70
2018-02-13T03:22:27.765Z,92.70
2018-02-13T03:24:54.936Z,92.60
2018-02-13T03:27:21.369Z,92.60
2018-02-13T03:29:47.788Z,92.10
2018-02-13T03:32:18.670Z,91.30
2018-02-13T03:34:49.037Z,91.30
2018-02-13T03:37:16.240Z,91.00
2018-02-13T03:39:42.696Z,90.90
2018-02-13T03:42:09.168Z,90.50
2018-02-13T03:44:36.580Z,90.00
2018-02-13T03:47:03.038Z,90.00
2018-02-13T03:49:29.463Z,89.80
2018-02-13T03:51:56.684Z,90.50
2018-02-13T03:54:23.089Z,90.40
2018-02-13T03:56:49.536Z,89.70
2018-02-13T03:59:15.965Z,89.50
2018-02-13T04:01:42.518Z,89.50
2018-02-13T04:04:08.953Z,89.50
2018-02-13T04:06:35.384Z,90.20
2018-02-13T04:09:01.824Z,90.30
2018-02-13T04:11:28.268Z,90.30
2018-02-13T04:13:54.706Z,90.10
2018-02-13T04:16:25.035Z,89.40
2018-02-13T04:18:51.484Z,89.30
2018-02-13T04:21:17.936Z,89.30
2018-02-13T04:23:44.438Z,89.20
2018-02-13T04:26:10.837Z,88.60
2018-02-13T04:28:37.292Z,89.10
2018-02-13T04:31:03.694Z,89.10
2018-02-13T04:33:30.353Z,89.10
2018-02-13T04:35:56.781Z,89.00
2018-02-13T04:38:23.239Z,89.70
2018-02-13T04:40:49.668Z,90.10
2018-02-13T04:43:16.097Z,90.10
2018-02-13T04:45:42.535Z,90.00
2018-02-13T04:48:08.952Z,89.20
2018-02-13T04:50:35.517Z,89.60
2018-02-13T04:53:01.989Z,89.80
2018-02-13T04:55:29.148Z,90.00
2018-02-13T04:57:56.330Z,88.90
2018-02-13T05:00:22.772Z,88.90
2018-02-13T05:02:49.212Z,89.50
2018-02-13T05:05:15.664Z,88.90
2018-02-13T05:07:46.490Z,88.30
2018-02-13T05:10:12.932Z,88.70
2018-02-13T05:12:39.376Z,89.10
2018-02-13T05:15:05.990Z,90.00
2018-02-13T05:17:33.241Z,88.70
2018-02-13T05:19:59.683Z,88.70
2018-02-13T05:22:26.170Z,88.60
2018-02-13T05:24:53.340Z,89.40
2018-02-13T05:27:19.806Z,89.40
2018-02-13T05:29:46.247Z,90.00
2018-02-13T05:32:14.691Z,90.00
2018-02-13T05:34:41.346Z,90.40
2018-02-13T05:37:07.808Z,90.40
2018-02-13T05:39:34.220Z,90.30
2018-02-13T05:42:03.732Z,90.10
2018-02-13T05:44:30.164Z,90.00
2018-02-13T05:46:56.610Z,90.00
2018-02-13T05:49:23.038Z,90.00
2018-02-13T05:51:49.476Z,90.10
2018-02-13T05:54:15.908Z,90.30
2018-02-13T05:56:42.385Z,90.30
2018-02-13T05:59:08.829Z,90.30
2018-02-13T06:01:35.257Z,90.40
2018-02-13T06:04:01.739Z,90.40
2018-02-13T06:06:28.279Z,90.40
2018-02-13T06:08:54.729Z,90.30
2018-02-13T06:11:21.169Z,90.20
2018-02-13T06:13:47.612Z,90.20
2018-02-13T06:16:14.784Z,90.50
2018-02-13T06:18:41.259Z,90.50
2018-02-13T06:21:07.695Z,90.40
2018-02-13T06:23:34.169Z,90.40
2018-02-13T06:26:00.822Z,90.60
2018-02-13T06:28:28.009Z,90.20
2018-02-13T06:30:54.451Z,90.30
2018-02-13T06:33:20.918Z,90.00
2018-02-13T06:35:48.155Z,89.40
2018-02-13T06:38:16.081Z,89.40
2018-02-13T06:40:42.531Z,89.40
2018-02-13T06:43:09.001Z,90.20
2018-02-13T06:45:35.528Z,90.30
2018-02-13T06:48:01.966Z,90.50
2018-02-13T06:50:28.676Z,90.20
2018-02-13T06:52:55.116Z,90.10
2018-02-13T06:55:22.296Z,89.60
2018-02-13T06:57:49.025Z,89.60
2018-02-13T07:00:15.629Z,89.70
2018-02-13T07:02:42.107Z,89.70
2018-02-13T07:05:08.628Z,89.70
2018-02-13T07:07:35.373Z,90.00
2018-02-13T07:10:02.676Z,89.90
2018-02-13T07:12:29.816Z,89.90
2018-02-13T07:14:58.201Z,90.00
2018-02-13T07:17:24.782Z,90.00
2018-02-13T07:19:51.273Z,90.00
2018-02-13T07:22:18.448Z,90.10
2018-02-13T07:24:48.882Z,90.10
2018-02-13T07:27:15.331Z,90.10
2018-02-13T07:29:41.807Z,90.10
2018-02-13T07:32:12.132Z,90.20
2018-02-13T07:34:38.626Z,90.20
2018-02-13T07:37:10.342Z,89.70
2018-02-13T07:39:36.809Z,89.70
2018-02-13T07:42:03.297Z,89.90
2018-02-13T07:44:30.505Z,90.70
2018-02-13T07:46:56.947Z,90.30
2018-02-13T07:49:23.413Z,90.40
2018-02-13T07:51:50.605Z,90.40
2018-02-13T07:54:17.085Z,90.40
2018-02-13T07:56:43.536Z,90.40
2018-02-13T07:59:10.051Z,90.50
2018-02-13T08:01:36.463Z,90.50
2018-02-13T08:04:02.932Z,90.60
2018-02-13T08:06:29.408Z,90.60
2018-02-13T08:08:55.860Z,90.50
2018-02-13T08:11:22.352Z,90.70
2018-02-13T08:13:49.572Z,92.50
2018-02-13T08:16:16.007Z,92.50
2018-02-13T08:18:43.354Z,94.70
2018-02-13T08:21:09.791Z,94.60
2018-02-13T08:23:36.236Z,95.30
2018-02-13T08:26:03.529Z,94.30
2018-02-13T08:28:30.755Z,90.90
2018-02-13T08:30:58.059Z,83.90
2018-02-13T08:33:24.539Z,83.90
2018-02-13T08:35:51.102Z,77.60
2018-02-13T08:38:18.414Z,71.10
2018-02-13T08:40:44.945Z,71.10
2018-02-13T08:43:11.404Z,68.60
2018-02-13T08:45:37.933Z,66.80
2018-02-13T08:48:04.450Z,65.50
2018-02-13T08:50:30.993Z,61.60
2018-02-13T08:52:57.828Z,60.00
2018-02-13T08:55:28.322Z,58.10
2018-02-13T08:57:54.809Z,57.60
2018-02-13T09:00:21.293Z,56.20
2018-02-13T09:02:47.761Z,54.80
2018-02-13T09:05:14.202Z,53.70
2018-02-13T09:07:40.623Z,52.80
2018-02-13T09:10:11.683Z,51.50
2018-02-13T09:12:38.148Z,51.10
2018-02-13T09:15:05.340Z,46.70
2018-02-13T09:17:31.795Z,46.70
2018-02-13T09:19:58.236Z,49.10
2018-02-13T09:22:24.703Z,49.30
2018-02-13T09:24:51.158Z,47.60
2018-02-13T09:27:17.640Z,46.40
2018-02-13T09:29:44.104Z,47.00
2018-02-13T09:32:11.280Z,47.00
2018-02-13T09:34:38.581Z,47.00
2018-02-13T09:37:05.014Z,47.00
2018-02-13T09:39:31.452Z,43.90
2018-02-13T09:41:57.883Z,43.70
2018-02-13T09:44:24.328Z,43.90
2018-02-13T09:46:50.768Z,44.70
2018-02-13T09:49:17.219Z,44.10
2018-02-13T09:51:44.391Z,41.80
2018-02-13T09:54:11.692Z,42.30
2018-02-13T09:56:38.165Z,42.30
2018-02-13T09:59:04.654Z,40.80
2018-02-13T10:01:31.069Z,40.50
2018-02-13T10:03:57.566Z,40.00
2018-02-13T10:06:25.062Z,38.30
2018-02-13T10:08:51.598Z,38.00
2018-02-13T10:11:18.083Z,39.00
2018-02-13T10:13:45.537Z,37.70
2018-02-13T10:16:12.129Z,37.60
2018-02-13T10:18:38.802Z,36.80
2018-02-13T10:21:09.910Z,37.60
2018-02-13T10:23:36.421Z,37.60
2018-02-13T10:26:02.927Z,34.40
2018-02-13T10:28:29.368Z,34.60
2018-02-13T10:30:56.580Z,33.80
2018-02-13T10:33:23.048Z,34.20
2018-02-13T10:35:49.594Z,31.20
2018-02-13T10:38:16.867Z,32.40
2018-02-13T10:40:43.391Z,32.40
2018-02-13T10:43:10.011Z,27.80
2018-02-13T10:45:36.545Z,28.70
2018-02-13T10:48:03.188Z,29.80
2018-02-13T10:50:29.766Z,27.20
2018-02-13T10:52:56.242Z,29.10
2018-02-13T10:55:22.697Z,29.70
2018-02-13T10:57:49.132Z,33.40
2018-02-13T11:00:15.649Z,27.50
2018-02-13T11:02:42.168Z,29.70
2018-02-13T11:05:08.749Z,29.40
2018-02-13T11:07:35.274Z,29.90
2018-02-13T11:10:01.744Z,29.70
2018-02-13T11:12:28.205Z,30.40
2018-02-13T11:14:54.705Z,31.70
2018-02-13T11:17:22.349Z,31.10
2018-02-13T11:19:48.905Z,31.10
2018-02-13T11:22:15.711Z,31.20
2018-02-13T11:24:43.011Z,37.00
2018-02-13T11:27:10.432Z,34.80
2018-02-13T11:29:36.937Z,34.80
2018-02-13T11:32:03.390Z,30.70
2018-02-13T11:34:30.728Z,34.40
2018-02-13T11:36:57.162Z,34.40
2018-02-13T11:39:24.650Z,36.10
2018-02-13T11:41:51.066Z,37.00
2018-02-13T11:44:17.534Z,38.30
2018-02-13T11:46:44.740Z,38.20
2018-02-13T11:49:11.195Z,38.80
2018-02-13T11:51:37.657Z,38.20
2018-02-13T11:54:04.162Z,39.30
2018-02-13T11:56:30.756Z,40.10
2018-02-13T11:58:57.946Z,39.10
2018-02-13T12:01:24.380Z,39.00
2018-02-13T12:03:50.815Z,38.10
2018-02-13T12:06:17.269Z,39.90
2018-02-13T12:08:43.787Z,40.50
2018-02-13T12:11:10.357Z,40.20
2018-02-13T12:13:36.910Z,40.70
2018-02-13T12:16:04.091Z,42.00
2018-02-13T12:18:30.594Z,42.00
2018-02-13T12:20:57.804Z,33.70
2018-02-13T12:23:24.388Z,33.60
2018-02-13T12:25:51.567Z,33.20
2018-02-13T12:28:18.462Z,33.30
2018-02-13T12:30:45.146Z,33.50
2018-02-13T12:33:11.601Z,33.20
2018-02-13T12:35:38.093Z,33.20
2018-02-13T12:38:04.521Z,30.60
2018-02-13T12:40:31.009Z,32.90
2018-02-13T12:42:57.450Z,30.10
2018-02-13T12:45:23.966Z,29.00
2018-02-13T12:47:51.488Z,30.70
2018-02-13T12:50:18.712Z,29.70
2018-02-13T12:52:45.207Z,29.70
2018-02-13T12:55:11.708Z,29.40
2018-02-13T12:57:38.171Z,29.40
2018-02-13T13:00:04.675Z,32.10
2018-02-13T13:02:31.890Z,27.10
2018-02-13T13:04:58.414Z,27.00
2018-02-13T13:07:24.875Z,28.50
2018-02-13T13:09:51.427Z,28.20
2018-02-13T13:12:17.853Z,29.50
2018-02-13T13:14:48.565Z,30.00
2018-02-13T13:17:15.061Z,30.50
2018-02-13T13:19:41.523Z,30.80
2018-02-13T13:22:08.056Z,32.50
2018-02-13T13:24:34.563Z,32.10
2018-02-13T13:27:01.725Z,33.40
2018-02-13T13:29:28.223Z,33.30
2018-02-13T13:31:54.657Z,34.00
2018-02-13T13:34:21.168Z,35.90
2018-02-13T13:36:47.594Z,37.40
2018-02-13T13:39:14.085Z,36.50
2018-02-13T13:41:41.301Z,35.10
2018-02-13T13:44:07.783Z,35.10
2018-02-13T13:46:34.980Z,34.90
2018-02-13T13:49:01.461Z,34.80
2018-02-13T13:51:28.651Z,35.00
2018-02-13T13:53:55.659Z,35.00
2018-02-13T13:56:23.212Z,37.80
2018-02-13T13:58:49.671Z,37.80
2018-02-13T14:01:16.159Z,36.80
2018-02-13T14:03:42.688Z,34.60
2018-02-13T14:06:09.140Z,36.30
2018-02-13T14:08:37.163Z,38.00
2018-02-13T14:11:03.633Z,38.00
2018-02-13T14:13:30.076Z,36.50
2018-02-13T14:15:56.647Z,37.90
2018-02-13T14:18:23.849Z,39.10
2018-02-13T14:20:50.301Z,39.10
2018-02-13T14:23:16.748Z,36.60
2018-02-13T14:25:44.709Z,39.60
2018-02-13T14:28:11.201Z,39.60
2018-02-13T14:30:37.670Z,38.30
2018-02-13T14:33:04.199Z,38.50
2018-02-13T14:35:34.092Z,40.70
2018-02-13T14:38:00.529Z,42.20
2018-02-13T14:40:26.984Z,39.70
2018-02-13T14:42:53.441Z,40.70
2018-02-13T14:45:19.950Z,40.00
2018-02-13T14:47:46.405Z,41.10
2018-02-13T14:50:12.895Z,40.30
2018-02-13T14:52:39.337Z,40.40
2018-02-13T14:55:05.846Z,42.20
2018-02-13T14:57:32.309Z,39.30
2018-02-13T14:59:58.801Z,41.20
2018-02-13T15:02:26.120Z,41.20
2018-02-13T15:04:52.589Z,41.20
2018-02-13T15:07:19.020Z,42.30
2018-02-13T15:09:46.253Z,44.20
2018-02-13T15:12:12.777Z,44.10
2018-02-13T15:14:40.347Z,45.80
2018-02-13T15:17:11.741Z,44.10
2018-02-13T15:19:48.202Z,44.00
2018-02-13T15:22:14.656Z,45.30
2018-02-13T15:24:41.277Z,45.40
2018-02-13T15:27:08.473Z,44.20
2018-02-13T15:29:34.883Z,44.10
2018-02-13T15:32:01.348Z,44.70
2018-02-13T15:34:27.816Z,44.60
2018-02-13T15:36:54.272Z,45.40
2018-02-13T15:39:21.448Z,47.30
2018-02-13T15:41:47.907Z,47.30
2018-02-13T15:44:14.331Z,48.90
2018-02-13T15:46:45.390Z,49.70
2018-02-13T15:49:12.148Z,50.90
2018-02-13T15:51:38.620Z,50.70
2018-02-13T15:54:05.056Z,51.20
2018-02-13T15:56:31.504Z,52.50
2018-02-13T15:58:58.046Z,52.60
2018-02-13T16:01:24.467Z,53.10
2018-02-13T16:03:50.910Z,53.50
2018-02-13T16:06:17.376Z,54.00
2018-02-13T16:08:43.877Z,54.40
2018-02-13T16:11:10.352Z,55.00
2018-02-13T16:13:36.924Z,55.40
2018-02-13T16:16:03.516Z,55.60
2018-02-13T16:18:29.927Z,55.90
2018-02-13T16:21:00.316Z,56.20
2018-02-13T16:23:27.522Z,56.00
2018-02-13T16:25:53.943Z,56.00
2018-02-13T16:28:20.412Z,56.30
2018-02-13T16:30:46.865Z,56.40
2018-02-13T16:33:13.292Z,56.60
2018-02-13T16:35:40.504Z,57.20
2018-02-13T16:38:06.945Z,57.20
2018-02-13T16:40:33.399Z,57.40
2018-02-13T16:42:59.841Z,57.50
2018-02-13T16:45:26.273Z,58.10
2018-02-13T16:47:52.846Z,58.80
2018-02-13T16:50:20.021Z,58.60
2018-02-13T16:52:47.690Z,58.60
2018-02-13T16:55:14.146Z,58.60
2018-02-13T16:57:40.619Z,58.60
2018-02-13T17:00:07.802Z,59.20
2018-02-13T17:02:34.216Z,59.10
2018-02-13T17:05:01.416Z,59.50
2018-02-13T17:07:27.848Z,59.50
2018-02-13T17:09:54.384Z,59.50
2018-02-13T17:12:20.814Z,59.60
2018-02-13T17:14:47.277Z,60.00
2018-02-13T17:17:14.467Z,61.00
2018-02-13T17:19:41.777Z,60.60
2018-02-13T17:22:08.963Z,60.80
2018-02-13T17:27:32.528Z,60.90
2018-02-13T17:29:59.240Z,61.20
2018-02-13T17:32:26.901Z,61.50
2018-02-13T17:34:53.643Z,61.40
2018-02-13T17:37:20.389Z,61.30
2018-02-13T17:39:47.313Z,61.50
2018-02-13T17:42:13.823Z,61.70
2018-02-13T17:44:40.389Z,61.80
2018-02-13T17:47:07.247Z,61.70
2018-02-13T17:49:33.885Z,61.80
2018-02-13T17:52:00.629Z,61.90
2018-02-13T17:54:27.418Z,62.10
2018-02-13T17:56:54.528Z,62.20
2018-02-13T17:59:21.369Z,62.30
2018-02-13T18:01:47.984Z,62.20
2018-02-13T18:04:14.743Z,62.20
2018-02-13T18:06:44.664Z,62.10
2018-02-13T18:09:11.304Z,62.10
2018-02-13T18:11:42.238Z,62.50
2018-02-13T18:14:09.695Z,63.10
2018-02-13T18:16:36.232Z,63.10
2018-02-13T18:19:02.973Z,63.20
2018-02-13T18:21:30.281Z,63.70
2018-02-13T18:23:56.967Z,63.60
2018-02-13T18:26:24.410Z,64.20
2018-02-13T18:28:55.367Z,64.20
2018-02-13T18:31:22.826Z,64.10
2018-02-13T18:33:49.667Z,64.10
2018-02-13T18:36:16.425Z,64.40
2018-02-13T18:38:43.868Z,64.30
2018-02-13T18:41:11.323Z,64.40
2018-02-13T18:43:41.559Z,64.30
2018-02-13T18:46:08.288Z,64.50
2018-02-13T18:48:35.031Z,64.30
2018-02-13T18:51:02.600Z,64.90
2018-02-13T18:53:30.870Z,65.20
2018-02-13T18:55:57.627Z,65.20
2018-02-13T18:58:25.177Z,65.50
2018-02-13T19:00:51.812Z,65.50
2018-02-13T19:03:18.577Z,66.50
2018-02-13T19:05:50.411Z,65.80
2018-02-13T19:08:18.623Z,66.10
2018-02-13T19:10:45.327Z,66.10
2018-02-13T19:13:12.073Z,66.50
2018-02-13T19:15:38.912Z,66.70
2018-02-13T19:18:05.653Z,66.80
2018-02-13T19:20:32.296Z,67.00
2018-02-13T19:22:58.932Z,66.90
2018-02-13T19:25:25.674Z,67.10
2018-02-13T19:27:53.751Z,67.60
2018-02-13T19:30:20.385Z,67.60
2018-02-13T19:32:47.035Z,67.70
2018-02-13T19:35:14.792Z,68.00
2018-02-13T19:37:46.038Z,68.50
2018-02-13T19:40:13.393Z,68.70
2018-02-13T19:42:40.019Z,68.70
2018-02-13T19:45:06.772Z,69.20
2018-02-13T19:47:33.511Z,69.40
2018-02-13T19:50:00.271Z,69.40
2018-02-13T19:52:27.538Z,70.80
2018-02-13T19:54:54.356Z,70.10
2018-02-13T19:57:22.530Z,70.60
2018-02-13T19:59:49.987Z,71.00
2018-02-13T20:02:16.929Z,70.90
2018-02-13T20:04:43.669Z,71.50
2018-02-13T20:07:11.033Z,72.00
2018-02-13T20:09:37.771Z,72.00
2018-02-13T20:12:05.225Z,72.60
2018-02-13T20:14:32.686Z,73.40
2018-02-13T20:17:00.052Z,72.90
2018-02-13T20:19:27.498Z,73.40
2018-02-13T20:21:54.853Z,73.70
2018-02-13T20:24:21.596Z,73.70
2018-02-13T20:26:48.248Z,74.10
2018-02-13T20:29:16.538Z,74.50
2018-02-13T20:31:43.529Z,74.50
2018-02-13T20:34:10.311Z,74.60
2018-02-13T20:36:37.658Z,75.20
2018-02-13T20:39:09.720Z,75.00
2018-02-13T20:41:36.359Z,75.00
2018-02-13T20:44:03.241Z,75.50
2018-02-13T20:46:30.055Z,76.00
2018-02-13T20:48:58.128Z,76.20
2018-02-13T20:51:25.580Z,76.60
2018-02-13T20:53:53.042Z,76.70
2018-02-13T20:56:20.915Z,76.70
2018-02-13T20:58:48.362Z,76.70
2018-02-13T21:01:15.105Z,76.70
2018-02-13T21:03:41.727Z,76.90
2018-02-13T21:06:12.372Z,76.90
2018-02-13T21:08:38.991Z,77.00
2018-02-13T21:11:05.753Z,77.10
2018-02-13T21:13:32.397Z,77.50
2018-02-13T21:15:59.243Z,77.30
2018-02-13T21:18:25.877Z,77.20
2018-02-13T21:20:52.717Z,77.20
2018-02-13T21:23:19.360Z,77.10
2018-02-13T21:25:46.216Z,77.10
2018-02-13T21:28:13.761Z,77.20
2018-02-13T21:30:40.604Z,77.10
2018-02-13T21:33:07.448Z,77.50
2018-02-13T21:35:34.087Z,77.50
2018-02-13T21:38:00.829Z,77.50
2018-02-13T21:40:28.288Z,78.00
2018-02-13T21:42:54.924Z,77.80
2018-02-13T21:45:21.573Z,77.80
2018-02-13T21:47:48.898Z,77.70
2018-02-13T21:50:15.553Z,77.70
2018-02-13T21:52:42.197Z,77.80
2018-02-13T21:55:10.572Z,77.70
2018-02-13T21:57:39.885Z,77.70
2018-02-13T22:00:07.338Z,77.80
2018-02-13T22:02:34.078Z,77.70
2018-02-13T22:05:00.818Z,78.00
2018-02-13T22:07:27.560Z,77.50
2018-02-13T22:09:54.873Z,77.30
2018-02-13T22:12:21.450Z,77.30
2018-02-13T22:14:48.089Z,76.90
2018-02-13T22:17:14.918Z,77.30
2018-02-13T22:19:41.572Z,77.80
2018-02-13T22:22:09.930Z,77.40
2018-02-13T22:24:37.381Z,77.40
2018-02-13T22:27:04.866Z,76.80
2018-02-13T22:29:31.504Z,76.80
2018-02-13T22:31:58.247Z,77.00
2018-02-13T22:34:24.886Z,76.90
2018-02-13T22:36:51.615Z,77.00
2018-02-13T22:39:18.277Z,77.50
2018-02-13T22:41:44.849Z,77.40
2018-02-13T22:44:11.546Z,77.60
2018-02-13T22:46:38.998Z,77.80
2018-02-13T22:49:05.954Z,77.70
2018-02-13T22:51:32.686Z,77.70
2018-02-13T22:53:59.439Z,77.70
2018-02-13T22:56:26.776Z,77.60
2018-02-13T22:58:53.527Z,77.60
2018-02-13T23:01:20.291Z,77.30
2018-02-13T23:03:47.623Z,77.30
2018-02-13T23:06:14.378Z,77.50
2018-02-13T23:08:45.625Z,78.70
2018-02-13T23:11:12.192Z,77.90
2018-02-13T23:13:39.196Z,78.10
2018-02-13T23:16:05.937Z,78.10
2018-02-13T23:18:32.575Z,78.50
2018-02-13T23:20:59.233Z,78.50
2018-02-13T23:23:30.052Z,78.60
2018-02-13T23:25:56.637Z,78.60
2018-02-13T23:28:23.433Z,79.00
2018-02-13T23:30:50.175Z,79.20
2018-02-13T23:33:20.806Z,79.10
2018-02-13T23:35:48.365Z,79.60
2018-02-13T23:38:18.757Z,79.60
2018-02-13T23:40:45.308Z,79.90
2018-02-13T23:43:12.071Z,79.80
2018-02-13T23:45:38.691Z,79.40
2018-02-13T23:48:05.457Z,79.30
2018-02-13T23:50:32.089Z,79.90
2018-02-13T23:52:58.735Z,80.20
2018-02-13T23:55:25.469Z,79.90
2018-02-13T23:57:55.897Z,80.00
